Time;durP1;ratioP1;P1;durP2;ratioP2;P2;SDS_P1;SDS_P2;PMS_P1;PMS_P2;Temp;Humidity;BMP_temperature;BMP_pressure;BME280_temperature;BME280_humidity;BME280_pressure;Samples;Min_cycle;Max_cycle;Signal;HPM_P1;HPM_P2
2022/04/18 00:01:13;;;;;;;1.03;0.90;;;;;;;5.64;67.48;94444.16;5015400;28;20550;-84
2022/04/18 00:03:38;;;;;;;0.90;0.90;;;;;;;5.43;67.39;94420.72;4997658;28;20204;-85
2022/04/18 00:06:04;;;;;;;1.00;1.00;;;;;;;5.83;66.84;94494.91;5015637;28;20203;-85
2022/04/18 00:08:29;;;;;;;1.03;1.03;;;;;;;5.30;67.10;94424.03;4997532;28;20720;-85
2022/04/18 00:10:55;;;;;;;1.40;1.30;;;;;;;5.51;68.42;94457.94;4998498;28;20193;-84
2022/04/18 00:13:20;;;;;;;0.90;0.90;;;;;;;5.64;67.31;94484.13;5015448;28;20607;-85
2022/04/18 00:15:46;;;;;;;1.43;1.20;;;;;;;5.46;67.48;94456.88;5015431;28;20244;-85
2022/04/18 00:18:11;;;;;;;0.90;0.90;;;;;;;5.19;68.01;94414.13;5015102;28;20161;-84
2022/04/18 00:20:37;;;;;;;1.03;0.93;;;;;;;5.28;66.57;94421.59;5015139;28;20161;-85
2022/04/18 00:23:02;;;;;;;1.40;1.30;;;;;;;5.03;66.13;94396.09;5014921;28;20211;-86
2022/04/18 00:25:28;;;;;;;1.37;1.27;;;;;;;5.16;66.55;94406.66;5015039;28;20218;-85
2022/04/18 00:27:53;;;;;;;1.33;1.20;;;;;;;5.27;66.57;94432.25;5015017;28;20171;-86
2022/04/18 00:30:19;;;;;;;1.47;1.37;;;;;;;5.52;67.10;94472.59;5014938;28;20180;-85
2022/04/18 00:32:44;;;;;;;1.00;1.00;;;;;;;5.46;67.33;94460.28;5015355;28;20160;-85
2022/04/18 00:35:10;;;;;;;1.00;1.00;;;;;;;5.27;66.84;94416.59;5014876;28;20596;-84
2022/04/18 00:37:39;;;;;;;1.27;1.17;;;;;;;5.35;66.33;94467.84;5014839;28;20184;-85
2022/04/18 00:40:06;;;;;;;1.67;1.20;;;;;;;5.42;66.76;94473.91;5014992;28;20157;-85
2022/04/18 00:42:34;;;;;;;0.90;0.90;;;;;;;5.10;66.10;94415.25;5016075;28;20189;-85
2022/04/18 00:45:01;;;;;;;1.60;1.20;;;;;;;5.37;66.35;94476.25;5018106;28;20180;-84
2022/04/18 00:47:27;;;;;;;1.50;1.40;;;;;;;5.35;66.52;94473.06;5016183;28;20169;-85
2022/04/18 00:49:52;;;;;;;1.50;1.40;;;;;;;5.38;66.18;94470.84;5014757;28;20542;-85
2022/04/18 00:52:18;;;;;;;1.33;1.23;;;;;;;5.28;66.43;94465.16;5013673;28;20218;-85
2022/04/18 00:54:44;;;;;;;1.30;1.20;;;;;;;5.33;66.29;94457.59;5014470;28;20218;-85
2022/04/18 00:57:10;;;;;;;1.07;1.07;;;;;;;5.37;65.92;94458.00;5014685;28;20687;-85
2022/04/18 00:59:37;;;;;;;1.77;1.67;;;;;;;5.00;66.36;94420.78;4996774;28;20269;-85
2022/04/18 01:02:04;;;;;;;1.30;1.20;;;;;;;5.23;66.48;94457.09;5014632;28;20168;-85
2022/04/18 01:04:31;;;;;;;1.13;1.13;;;;;;;5.02;66.49;94434.41;5014170;28;20196;-85
2022/04/18 01:06:58;;;;;;;2.20;1.50;;;;;;;5.22;67.16;94461.50;5014482;28;20638;-85
2022/04/18 01:09:23;;;;;;;1.33;1.23;;;;;;;5.21;66.87;94453.84;5013990;28;20259;-85
2022/04/18 01:11:49;;;;;;;2.10;1.63;;;;;;;5.02;66.84;94413.56;5014724;28;20761;-85
2022/04/18 01:14:15;;;;;;;1.50;1.40;;;;;;;4.77;67.31;94381.03;5014635;28;20160;-85
2022/04/18 01:16:42;;;;;;;1.40;1.30;;;;;;;5.07;67.06;94421.66;5013958;28;20172;-85
2022/04/18 01:19:09;;;;;;;1.53;1.43;;;;;;;5.07;66.96;94423.44;5014019;28;20176;-85
2022/04/18 01:21:35;;;;;;;4.53;1.27;;;;;;;5.13;66.57;94428.72;5013941;28;20161;-86
2022/04/18 01:28:58;;;;;;;1.33;1.23;;;;;;;5.28;66.57;94450.31;5013848;28;20250;-86
2022/04/18 01:29:35;;;;;;;1.50;1.40;;;;;;;5.24;67.00;94441.25;4994727;28;20279;-85
2022/04/18 01:32:00;;;;;;;1.40;1.30;;;;;;;4.90;67.36;94381.97;5013955;28;20167;-84
2022/04/18 01:34:26;;;;;;;1.60;1.50;;;;;;;5.02;67.16;94381.44;4996602;28;20175;-85
2022/04/18 01:36:51;;;;;;;1.53;1.43;;;;;;;5.02;66.61;94368.41;4996193;28;20238;-87
2022/04/18 01:39:17;;;;;;;5.60;2.87;;;;;;;5.13;67.48;94386.97;5014437;28;20172;-85
2022/04/18 01:41:43;;;;;;;1.50;1.40;;;;;;;5.13;66.99;94405.22;5013856;28;20165;-86
2022/04/18 01:44:08;;;;;;;1.20;1.10;;;;;;;5.25;67.17;94423.81;5013653;28;20188;-86
2022/04/18 01:46:34;;;;;;;3.40;1.33;;;;;;;5.16;66.84;94399.66;5013816;28;20180;-87
2022/04/18 01:48:59;;;;;;;1.33;1.23;;;;;;;5.28;67.44;94408.56;5013646;28;20239;-85
2022/04/18 01:51:25;;;;;;;1.27;1.17;;;;;;;4.86;66.99;94344.22;5013177;28;20305;-85
2022/04/18 01:53:50;;;;;;;1.40;1.30;;;;;;;4.91;67.34;94356.72;5013355;28;20176;-85
2022/04/18 01:56:16;;;;;;;3.87;1.30;;;;;;;4.83;67.42;94352.44;5013699;28;20168;-85
2022/04/18 01:58:41;;;;;;;2.10;1.27;;;;;;;4.83;67.54;94346.41;5016854;28;20663;-85
2022/04/18 02:01:07;;;;;;;1.50;1.40;;;;;;;5.02;67.54;94355.38;5022303;28;20184;-86
2022/04/18 02:03:33;;;;;;;1.07;1.07;;;;;;;4.68;67.97;94302.16;5019543;28;20192;-86
2022/04/18 02:05:59;;;;;;;1.43;1.20;;;;;;;5.21;67.84;94406.91;5020870;28;20201;-86
2022/04/18 02:08:26;;;;;;;1.07;1.07;;;;;;;5.16;66.93;94410.09;5013399;28;20647;-87
2022/04/18 02:10:52;;;;;;;1.10;1.10;;;;;;;4.67;67.37;94331.03;5015041;28;20302;-86
2022/04/18 02:13:18;;;;;;;3.07;1.10;;;;;;;5.13;67.31;94399.22;5032962;28;20231;-86
2022/04/18 02:15:44;;;;;;;1.60;1.10;;;;;;;5.16;67.59;94394.44;5032668;28;20179;-85
2022/04/18 02:18:10;;;;;;;2.57;1.20;;;;;;;4.91;67.22;94365.34;5032881;28;20231;-87
2022/04/18 02:20:35;;;;;;;1.10;1.00;;;;;;;4.70;68.01;94330.66;5014933;28;20179;-86
2022/04/18 02:23:00;;;;;;;2.10;1.20;;;;;;;4.66;67.94;94321.63;5033122;28;20191;-88
2022/04/18 02:25:26;;;;;;;1.30;1.20;;;;;;;4.99;67.51;94366.19;5032593;28;20184;-86
2022/04/18 02:27:52;;;;;;;2.17;1.30;;;;;;;4.67;67.50;94316.19;5032911;28;20167;-89
2022/04/18 02:30:18;;;;;;;1.33;1.00;;;;;;;4.60;67.76;94307.50;5032720;28;20171;-87
2022/04/18 02:32:50;;;;;;;0.97;0.97;;;;;;;4.70;68.26;94336.69;5032378;28;20657;-87
2022/04/18 02:35:18;;;;;;;1.00;1.00;;;;;;;4.77;68.11;94349.75;5014166;28;20191;-87
2022/04/18 02:37:43;;;;;;;1.00;1.00;;;;;;;4.97;68.51;94378.63;5020371;28;20186;-87
2022/04/18 02:40:10;;;;;;;1.10;1.10;;;;;;;4.55;67.80;94317.69;5023285;28;20179;-86
2022/04/18 02:42:35;;;;;;;1.00;1.00;;;;;;;4.48;68.42;94304.63;5020188;28;20279;-87
2022/04/18 02:45:01;;;;;;;1.20;1.20;;;;;;;4.63;67.41;94325.38;5017624;28;20563;-87
2022/04/18 02:47:26;;;;;;;1.00;1.00;;;;;;;4.64;68.30;94324.41;5029273;28;20253;-88
2022/04/18 02:49:52;;;;;;;1.10;1.00;;;;;;;4.58;68.21;94316.53;5032326;28;20629;-87
2022/04/18 02:52:18;;;;;;;1.40;1.30;;;;;;;4.96;68.14;94375.19;5027612;28;20218;-87
2022/04/18 02:54:44;;;;;;;1.13;0.93;;;;;;;4.31;68.91;94292.84;5021717;28;20201;-88
2022/04/18 02:57:12;;;;;;;0.80;0.80;;;;;;;4.83;69.08;94372.50;5020168;28;20270;-88
2022/04/18 02:59:40;;;;;;;0.83;0.83;;;;;;;4.71;69.12;94376.59;5004662;28;20618;-87
2022/04/18 03:02:06;;;;;;;1.10;1.00;;;;;;;4.70;70.35;94370.56;5031723;28;20179;-87
2022/04/18 03:04:32;;;;;;;1.20;1.10;;;;;;;4.47;69.75;94341.28;5014209;28;20755;-87
2022/04/18 03:06:58;;;;;;;1.73;1.33;;;;;;;4.24;69.81;94299.75;5032061;28;20210;-88
2022/04/18 03:09:24;;;;;;;1.20;1.20;;;;;;;4.35;69.74;94311.50;5031869;28;20225;-87
2022/04/18 03:11:49;;;;;;;1.20;1.10;;;;;;;4.45;69.86;94322.41;5031973;28;20156;-88
2022/04/18 03:14:15;;;;;;;1.43;1.33;;;;;;;4.47;69.81;94320.44;5032908;28;20182;-87
2022/04/18 03:16:40;;;;;;;1.47;1.20;;;;;;;4.53;69.84;94324.91;5036369;28;20544;-86
2022/04/18 03:19:06;;;;;;;1.37;1.27;;;;;;;4.71;69.54;94347.91;5018357;28;20179;-87
2022/04/18 03:21:32;;;;;;;1.10;1.10;;;;;;;4.58;69.12;94342.59;5025292;28;20642;-87
2022/04/18 03:23:57;;;;;;;1.33;1.23;;;;;;;4.58;69.64;94332.16;5024673;28;20234;-87
2022/04/18 03:26:23;;;;;;;1.20;1.10;;;;;;;4.68;69.07;94350.88;5028466;28;20176;-88
2022/04/18 03:28:48;;;;;;;1.10;1.10;;;;;;;4.83;68.97;94373.31;5010393;28;20183;-87
2022/04/18 03:31:14;;;;;;;5.07;1.17;;;;;;;4.85;68.67;94373.91;5026069;28;20176;-87
2022/04/18 03:33:39;;;;;;;0.90;0.90;;;;;;;4.19;69.32;94283.91;5017048;28;20536;-87
2022/04/18 03:41:33;;;;;;;1.27;1.07;;;;;;;4.39;70.34;94339.59;5016147;28;20218;-86
2022/04/18 03:43:58;;;;;;;2.27;1.20;;;;;;;4.28;70.32;94311.44;5015673;28;20200;-87
2022/04/18 03:46:24;;;;;;;1.00;1.00;;;;;;;4.34;68.82;94304.66;5026816;28;20188;-85
2022/04/18 03:48:50;;;;;;;1.10;1.10;;;;;;;4.58;69.16;94347.81;5035447;28;20194;-86
2022/04/18 03:51:15;;;;;;;0.90;0.90;;;;;;;4.60;69.43;94353.63;5035495;28;20191;-88
2022/04/18 03:53:40;;;;;;;1.20;1.10;;;;;;;4.06;69.43;94278.56;5017693;28;20263;-86
2022/04/18 03:56:06;;;;;;;1.10;1.10;;;;;;;4.23;69.52;94305.19;5008698;28;20176;-84
2022/04/18 03:58:32;;;;;;;1.30;1.20;;;;;;;4.80;69.82;94375.47;5023321;28;20172;-84
2022/04/18 04:00:57;;;;;;;1.33;1.23;;;;;;;4.00;69.39;94245.44;5021594;28;20234;-84
2022/04/18 04:03:22;;;;;;;1.60;1.50;;;;;;;4.79;70.10;94372.06;5027073;28;20602;-85
2022/04/18 04:05:48;;;;;;;1.80;1.30;;;;;;;4.81;69.10;94375.28;5024864;28;20243;-85
2022/04/18 04:08:18;;;;;;;1.67;1.30;;;;;;;4.59;69.44;94347.59;5022339;28;20220;-84
2022/04/18 04:10:43;;;;;;;2.00;1.37;;;;;;;4.82;69.38;94384.72;5021618;28;20222;-86
2022/04/18 04:13:09;;;;;;;1.40;1.30;;;;;;;4.47;69.43;94318.63;5024300;28;20173;-86
2022/04/18 04:15:34;;;;;;;1.30;1.20;;;;;;;4.87;68.58;94371.09;5033518;28;20179;-86
2022/04/18 04:18:00;;;;;;;2.00;1.80;;;;;;;4.91;69.40;94380.19;5035196;28;20160;-85
2022/04/18 04:20:25;;;;;;;1.97;1.73;;;;;;;4.67;69.91;94337.03;5033345;28;20723;-85
2022/04/18 04:22:51;;;;;;;2.30;2.10;;;;;;;4.83;68.92;94378.50;5025240;28;20200;-86
2022/04/18 04:25:17;;;;;;;1.97;1.70;;;;;;;4.79;69.36;94366.03;5024808;28;20230;-85
2022/04/18 04:27:43;;;;;;;5.23;1.70;;;;;;;4.58;69.86;94330.38;5026572;28;20175;-86
2022/04/18 04:30:09;;;;;;;11.23;2.10;;;;;;;4.53;68.52;94343.13;5008038;28;20175;-85
2022/04/18 04:32:34;;;;;;;3.33;2.10;;;;;;;4.51;68.26;94316.44;5024991;28;20172;-85
2022/04/18 04:35:00;;;;;;;4.53;2.00;;;;;;;4.48;67.57;94329.88;5026806;28;20176;-86
2022/04/18 04:37:25;;;;;;;4.70;2.10;;;;;;;4.34;68.09;94313.28;5022768;28;20943;-87
2022/04/18 04:39:51;;;;;;;1.80;1.60;;;;;;;4.47;68.94;94347.31;5024109;28;20598;-88
2022/04/18 04:42:18;;;;;;;1.87;1.73;;;;;;;4.34;68.46;94328.13;5025301;28;20673;-87
2022/04/18 04:44:44;;;;;;;2.30;1.90;;;;;;;4.81;68.35;94383.09;5015356;28;20674;-87
2022/04/18 04:47:11;;;;;;;2.30;2.10;;;;;;;4.20;68.39;94308.97;5016050;28;20184;-88
2022/04/18 04:49:37;;;;;;;2.17;1.93;;;;;;;4.33;68.35;94319.50;5023926;28;20195;-89
2022/04/18 04:52:04;;;;;;;2.20;2.00;;;;;;;4.51;68.98;94361.56;5004668;28;20173;-87
2022/04/18 04:54:29;;;;;;;1.97;1.73;;;;;;;4.78;68.47;94396.50;5006098;28;21455;-88
2022/04/18 04:56:55;;;;;;;3.00;2.37;;;;;;;4.68;68.46;94364.72;5032398;28;20724;-87
2022/04/18 04:59:20;;;;;;;2.03;1.83;;;;;;;4.52;68.58;94316.28;5034247;28;20544;-87
2022/04/18 05:01:46;;;;;;;2.60;2.20;;;;;;;4.98;67.41;94385.44;5030786;28;20233;-87
2022/04/18 05:04:12;;;;;;;2.40;2.20;;;;;;;5.01;67.86;94395.50;5022879;28;20680;-86
2022/04/18 05:06:37;;;;;;;2.90;2.07;;;;;;;4.51;67.29;94303.41;5024158;28;20172;-87
2022/04/18 05:09:03;;;;;;;1.87;1.77;;;;;;;4.86;67.43;94352.03;5020858;28;20588;-85
2022/04/18 05:11:28;;;;;;;1.80;1.70;;;;;;;5.10;66.81;94369.09;5017097;28;20184;-90
2022/04/18 05:13:54;;;;;;;4.13;2.80;;;;;;;5.19;67.11;94398.47;4996793;28;20169;-90
2022/04/18 05:16:20;;;;;;;4.77;2.73;;;;;;;4.94;67.40;94331.06;4996714;28;20172;-89
2022/04/18 05:18:46;;;;;;;2.30;2.10;;;;;;;4.97;66.00;94339.50;5014367;28;20294;-89
2022/04/18 05:21:11;;;;;;;6.33;2.30;;;;;;;4.82;65.92;94310.91;5014404;28;20242;-88
2022/04/18 05:23:37;;;;;;;2.20;1.90;;;;;;;5.14;66.09;94365.13;4996510;28;20228;-89
2022/04/18 05:26:03;;;;;;;3.17;2.37;;;;;;;4.84;66.47;94311.53;5014493;28;20161;-88
2022/04/18 05:28:29;;;;;;;4.00;2.00;;;;;;;5.00;66.78;94336.53;5014338;28;20171;-87
2022/04/18 05:30:54;;;;;;;2.77;2.20;;;;;;;5.11;66.69;94342.00;5018147;28;20183;-87
2022/04/18 05:33:21;;;;;;;2.67;1.90;;;;;;;5.40;65.51;94367.09;5023668;28;20176;-89
2022/04/18 05:35:47;;;;;;;2.40;1.80;;;;;;;5.15;64.39;94342.44;5022286;28;20171;-89
2022/04/18 05:38:14;;;;;;;2.53;1.80;;;;;;;5.06;65.20;94323.53;5004304;28;20638;-89
2022/04/18 05:40:40;;;;;;;3.07;2.43;;;;;;;5.23;65.15;94347.50;5014226;28;20171;-88
2022/04/18 05:43:08;;;;;;;3.30;2.13;;;;;;;4.81;64.76;94291.84;5033444;28;20190;-88
2022/04/18 05:45:34;;;;;;;3.00;2.30;;;;;;;5.02;64.89;94337.94;5015541;28;20187;-88
2022/04/18 05:48:00;;;;;;;2.40;1.80;;;;;;;5.13;65.41;94367.91;5015820;28;20171;-89
2022/04/18 05:50:25;;;;;;;5.37;2.27;;;;;;;4.98;65.60;94339.31;5033655;28;20211;-89
2022/04/18 05:52:51;;;;;;;3.43;2.30;;;;;;;4.84;65.71;94314.16;5015453;28;20183;-89
2022/04/18 05:55:16;;;;;;;2.00;1.80;;;;;;;5.03;65.18;94331.72;5015692;28;20180;-90
2022/04/18 05:57:42;;;;;;;2.17;1.97;;;;;;;5.04;66.06;94327.31;5015549;28;20172;-89
2022/04/18 06:00:08;;;;;;;2.33;1.83;;;;;;;5.17;65.24;94332.63;5015650;28;20253;-89
2022/04/18 06:02:33;;;;;;;2.00;1.80;;;;;;;5.23;65.53;94382.25;5033174;28;20168;-89
2022/04/18 06:04:59;;;;;;;5.60;3.60;;;;;;;5.12;65.75;94351.44;5015503;28;20249;-89
2022/04/18 06:07:24;;;;;;;5.40;2.33;;;;;;;5.28;65.20;94353.75;5015237;28;20266;-90
2022/04/18 06:09:50;;;;;;;5.03;2.50;;;;;;;5.41;64.54;94345.22;5032943;28;20227;-89
2022/04/18 06:12:20;;;;;;;3.37;2.03;;;;;;;5.44;63.44;94305.72;5015002;28;20552;-90
2022/04/18 06:14:45;;;;;;;2.10;1.77;;;;;;;6.10;62.23;94370.50;5033026;28;20163;-89
2022/04/18 06:17:11;;;;;;;3.57;2.07;;;;;;;5.97;61.47;94334.66;5015190;28;20168;-90
2022/04/18 06:19:37;;;;;;;2.03;1.87;;;;;;;6.25;61.33;94331.94;5032787;28;20175;-88
2022/04/18 06:22:03;;;;;;;2.93;2.30;;;;;;;6.49;60.74;94356.78;5015341;28;20592;-89
2022/04/18 06:24:29;;;;;;;2.23;1.97;;;;;;;6.90;60.03;94365.28;5015079;28;20274;-89
2022/04/18 06:26:54;;;;;;;1999.90;999.90;;;;;;;7.13;58.25;94384.00;5012926;28;20631;-85
2022/04/18 06:29:19;;;;;;;1999.90;999.90;;;;;;;7.09;58.73;94361.84;5021823;28;20260;-85
2022/04/18 06:35:07;;;;;;;1999.90;999.90;;;;;;;6.89;57.25;94379.34;5022100;28;20681;-88
2022/04/18 06:37:33;;;;;;;1999.90;999.90;;;;;;;7.15;57.92;94423.88;4995440;28;20258;-89
2022/04/18 06:39:59;;;;;;;1999.90;999.90;;;;;;;7.27;59.24;94423.25;4996766;28;20160;-88
2022/04/18 06:42:24;;;;;;;1999.90;999.90;;;;;;;7.44;61.87;94435.72;5000642;28;20188;-87
2022/04/18 06:44:50;;;;;;;1999.90;999.90;;;;;;;7.31;62.10;94367.69;5021059;28;20207;-86
2022/04/18 06:47:15;;;;;;;1999.90;999.90;;;;;;;7.83;59.92;94395.59;5006008;28;20195;-86
2022/04/18 06:49:41;;;;;;;1999.90;999.90;;;;;;;8.10;58.76;94385.06;5000532;28;20174;-86
2022/04/18 06:52:06;;;;;;;1999.90;999.90;;;;;;;8.40;56.42;94386.16;5031134;28;20183;-86
2022/04/18 06:54:32;;;;;;;1999.90;999.90;;;;;;;8.45;55.04;94386.34;4995007;28;20192;-85
2022/04/18 06:57:01;;;;;;;1999.90;999.90;;;;;;;8.33;55.93;94390.63;4994795;28;20200;-87
2022/04/18 06:59:30;;;;;;;1999.90;999.90;;;;;;;8.15;54.98;94378.16;5012584;28;20160;-88
2022/04/18 07:01:57;;;;;;;1999.90;999.90;;;;;;;7.91;58.66;94374.41;5012326;28;20168;-90
2022/04/18 07:04:23;;;;;;;1999.90;999.90;;;;;;;8.41;58.36;94447.28;4994957;28;20191;-92
2022/04/18 07:06:49;;;;;;;1999.90;999.90;;;;;;;8.19;56.71;94462.47;5019690;28;20628;-90
2022/04/18 07:09:14;;;;;;;1999.90;999.90;;;;;;;7.60;57.49;94405.72;5019281;28;20247;-88
2022/04/18 07:11:42;;;;;;;1999.90;999.90;;;;;;;7.64;59.41;94446.22;5021382;28;20179;-86
2022/04/18 07:14:08;;;;;;;1999.90;999.90;;;;;;;7.57;61.10;94443.59;5004592;28;20184;-86
2022/04/18 07:16:34;;;;;;;1999.90;999.90;;;;;;;7.04;60.32;94416.59;5019344;28;20161;-86
2022/04/18 07:18:59;;;;;;;1999.90;999.90;;;;;;;6.73;60.56;94384.97;5025531;28;20182;-85
2022/04/18 07:21:26;;;;;;;1999.90;999.90;;;;;;;6.75;61.03;94428.22;5032502;28;20213;-84
2022/04/18 07:23:51;;;;;;;1999.90;999.90;;;;;;;6.62;60.97;94409.88;5030826;28;20192;-91
2022/04/18 07:26:17;;;;;;;1999.90;999.90;;;;;;;6.37;60.94;94386.09;5014400;28;20195;-89
2022/04/18 07:28:42;;;;;;;1999.90;999.90;;;;;;;6.56;60.99;94431.59;5005588;28;20267;-90
2022/04/18 07:31:08;;;;;;;1999.90;999.90;;;;;;;6.47;61.12;94395.38;5009149;28;20233;-90
2022/04/18 07:33:34;;;;;;;1999.90;999.90;;;;;;;6.52;60.92;94399.00;5014110;28;20180;-88
2022/04/18 07:36:00;;;;;;;1999.90;999.90;;;;;;;6.88;61.71;94447.56;5014230;28;20183;-91
2022/04/18 07:41:09;;;;;;;1999.90;999.90;;;;;;;6.63;60.47;94347.94;5024646;28;20187;-83
2022/04/18 07:43:35;;;;;;;1999.90;999.90;;;;;;;6.92;60.03;94375.53;5018882;28;20200;-87
2022/04/18 07:46:04;;;;;;;1999.90;999.90;;;;;;;7.23;59.73;94449.03;5004276;28;20188;-86
2022/04/18 07:48:30;;;;;;;1999.90;999.90;;;;;;;7.24;60.41;94457.69;5002719;28;20302;-87
2022/04/18 07:53:40;;;;;;;1999.90;999.90;;;;;;;7.07;58.91;94438.94;5028767;28;20175;-90
2022/04/18 07:56:05;;;;;;;1999.90;999.90;;;;;;;6.96;60.39;94463.06;5004387;28;20585;-88
2022/04/18 07:58:31;;;;;;;1999.90;999.90;;;;;;;6.53;60.85;94405.03;5022218;28;20200;-88
2022/04/18 08:00:57;;;;;;;1999.90;999.90;;;;;;;6.25;61.23;94392.88;5005348;28;20172;-88
2022/04/18 08:03:22;;;;;;;1999.90;999.90;;;;;;;6.05;62.00;94377.09;5024366;28;20200;-89
2022/04/18 08:05:48;;;;;;;1999.90;999.90;;;;;;;6.44;61.13;94426.13;5024112;28;20167;-88
2022/04/18 08:08:13;;;;;;;1999.90;999.90;;;;;;;6.61;61.39;94436.22;5020901;28;20231;-92
2022/04/18 08:10:39;;;;;;;1999.90;999.90;;;;;;;6.44;60.93;94386.91;5011342;28;20263;-87
2022/04/18 08:13:04;;;;;;;1999.90;999.90;;;;;;;6.41;59.79;94399.56;5024379;28;20234;-89
2022/04/18 08:15:31;;;;;;;1999.90;999.90;;;;;;;6.46;60.03;94397.19;5005340;28;20688;-88
2022/04/18 08:17:57;;;;;;;1999.90;999.90;;;;;;;6.58;59.72;94410.47;5020064;28;20176;-89
2022/04/18 08:20:23;;;;;;;1999.90;999.90;;;;;;;6.59;60.95;94454.72;5007480;28;20183;-89
2022/04/18 08:22:49;;;;;;;1999.90;999.90;;;;;;;6.34;61.19;94403.97;5021844;28;20176;-92
2022/04/18 08:25:15;;;;;;;1999.90;999.90;;;;;;;6.63;61.04;94442.88;5006247;28;20238;-87
2022/04/18 08:27:41;;;;;;;1999.90;999.90;;;;;;;6.54;60.06;94446.66;5024535;28;20168;-87
2022/04/18 08:30:07;;;;;;;1999.90;999.90;;;;;;;6.67;60.34;94457.16;5023772;28;20180;-87
2022/04/18 08:32:36;;;;;;;1999.90;999.90;;;;;;;6.11;60.88;94362.47;5028267;28;20176;-88
2022/04/18 08:35:02;;;;;;;1999.90;999.90;;;;;;;6.40;61.17;94451.03;5007800;28;20179;-84
2022/04/18 08:37:27;;;;;;;1999.90;999.90;;;;;;;6.48;62.13;94446.66;5034637;28;20159;-86
2022/04/18 08:39:53;;;;;;;1999.90;999.90;;;;;;;5.96;62.84;94361.81;5016941;28;20176;-85
2022/04/18 08:42:21;;;;;;;1999.90;999.90;;;;;;;6.09;61.04;94374.91;5034561;28;20652;-86
2022/04/18 08:44:50;;;;;;;1999.90;999.90;;;;;;;6.11;60.00;94375.53;5016587;28;20226;-84
2022/04/18 08:52:43;;;;;;;1999.90;999.90;;;;;;;6.57;60.06;94463.78;5034881;28;20179;-88
2022/04/18 08:53:40;;;;;;;1999.90;999.90;;;;;;;6.35;60.58;94463.88;5034949;28;20167;-87
2022/04/18 08:56:05;;;;;;;1999.90;999.90;;;;;;;6.23;61.71;94456.78;5023819;28;20195;-86
2022/04/18 08:58:31;;;;;;;1999.90;999.90;;;;;;;6.22;60.95;94457.81;5031600;28;20179;-88
2022/04/18 09:00:59;;;;;;;1999.90;999.90;;;;;;;5.82;60.75;94394.03;5004633;28;20181;-86
2022/04/18 09:03:25;;;;;;;1999.90;999.90;;;;;;;6.14;61.03;94435.22;5027875;28;20199;-90
2022/04/18 09:06:10;;;;;;;1999.90;999.90;;;;;;;5.79;61.54;94374.38;5005543;28;20188;-87
2022/04/18 09:08:46;;;;;;;1999.90;999.90;;;;;;;6.15;61.39;94389.81;5028567;28;20235;-86
2022/04/18 09:11:45;;;;;;;1999.90;999.90;;;;;;;6.32;61.37;94427.66;5023059;28;20191;-88
2022/04/18 09:14:14;;;;;;;1999.90;999.90;;;;;;;6.46;60.42;94440.81;4986720;28;20573;-88
2022/04/18 09:16:41;;;;;;;1999.90;999.90;;;;;;;6.59;59.41;94443.44;5027867;28;20187;-85
2022/04/18 09:19:12;;;;;;;1999.90;999.90;;;;;;;6.68;60.02;94448.31;5005657;28;20176;-84
2022/04/18 09:22:04;;;;;;;1999.90;999.90;;;;;;;6.19;59.95;94398.88;5028405;28;20176;-87
2022/04/18 09:24:34;;;;;;;1999.90;999.90;;;;;;;6.54;60.51;94440.63;5018940;28;20218;-86
2022/04/18 09:27:29;;;;;;;1999.90;999.90;;;;;;;6.74;60.52;94431.84;5020185;28;20657;-85
2022/04/18 09:30:06;;;;;;;1999.90;999.90;;;;;;;6.98;58.18;94433.09;5013855;28;20280;-84
2022/04/18 09:32:32;;;;;;;1999.90;999.90;;;;;;;7.06;57.89;94430.28;5023629;28;20217;-84
2022/04/18 09:35:03;;;;;;;1999.90;999.90;;;;;;;7.21;60.79;94443.19;5005192;28;20954;-83
2022/04/18 09:37:30;;;;;;;1999.90;999.90;;;;;;;7.05;57.25;94447.00;5022096;28;20641;-86
2022/04/18 09:39:56;;;;;;;1999.90;999.90;;;;;;;6.62;57.02;94372.47;5023172;28;20227;-84
2022/04/18 09:42:24;;;;;;;367.33;344.07;;;;;;;7.01;56.93;94445.78;5025351;28;20191;-84
2022/04/18 09:44:50;;;;;;;1999.90;999.90;;;;;;;6.70;58.29;94416.75;5026250;28;20199;-86
2022/04/18 09:47:21;;;;;;;1999.90;999.90;;;;;;;6.91;58.90;94441.94;5018206;28;20188;-84
2022/04/18 09:49:47;;;;;;;1999.90;999.90;;;;;;;7.03;57.34;94435.09;5013736;28;20161;-85
2022/04/18 09:52:16;;;;;;;1999.90;999.90;;;;;;;6.95;56.92;94437.91;5005036;28;20271;-84
2022/04/18 09:54:55;;;;;;;1999.90;999.90;;;;;;;7.06;56.45;94435.53;5024915;28;20211;-85
2022/04/18 09:57:22;;;;;;;1999.90;999.90;;;;;;;6.80;57.10;94433.66;5018410;28;20203;-85
2022/04/18 09:59:50;;;;;;;1999.90;999.90;;;;;;;6.56;58.83;94373.28;5003057;28;20192;-83
2022/04/18 10:02:16;;;;;;;1999.90;999.90;;;;;;;7.10;58.63;94428.88;5023441;28;20188;-83
2022/04/18 10:04:42;;;;;;;1999.90;999.90;;;;;;;7.16;57.87;94408.97;5025946;28;21148;-89
2022/04/18 10:07:08;;;;;;;1999.90;999.90;;;;;;;6.85;56.85;94357.19;5005995;28;20176;-85
2022/04/18 10:09:34;;;;;;;1999.90;999.90;;;;;;;6.86;56.65;94355.41;5023419;28;20712;-85
2022/04/18 10:12:00;;;;;;;1999.90;999.90;;;;;;;6.64;57.27;94371.28;5020825;28;20259;-86
2022/04/18 10:14:26;;;;;;;1999.90;999.90;;;;;;;6.54;57.73;94364.81;5022153;28;20188;-86
2022/04/18 10:16:52;;;;;;;1999.90;999.90;;;;;;;6.43;56.43;94333.00;5017637;28;20172;-85
2022/04/18 10:19:41;;;;;;;1999.90;999.90;;;;;;;7.02;56.29;94423.84;5005991;28;20184;-86
2022/04/18 10:22:32;;;;;;;1999.90;999.90;;;;;;;6.94;56.80;94421.41;5011470;28;20193;-85
2022/04/18 10:25:06;;;;;;;1999.90;999.90;;;;;;;7.09;56.62;94410.78;5013409;28;20731;-85
2022/04/18 10:28:00;;;;;;;1999.90;999.90;;;;;;;7.16;57.14;94395.88;5017352;28;20180;-85
2022/04/18 10:30:26;;;;;;;1999.90;999.90;;;;;;;7.20;57.70;94412.78;5007527;28;20202;-85
2022/04/18 10:32:53;;;;;;;1999.90;999.90;;;;;;;7.20;58.43;94416.19;4991456;28;20702;-86
2022/04/18 10:35:22;;;;;;;1999.90;999.90;;;;;;;6.86;58.03;94339.69;5014500;28;20198;-86
2022/04/18 10:37:53;;;;;;;1999.90;999.90;;;;;;;7.39;58.67;94408.56;5015144;28;20685;-86
2022/04/18 10:40:19;;;;;;;1999.90;999.90;;;;;;;7.33;58.60;94388.44;4997068;28;20187;-86
2022/04/18 10:42:44;;;;;;;1999.90;999.90;;;;;;;7.19;58.78;94357.00;4999270;28;20179;-85
2022/04/18 10:45:14;;;;;;;1999.90;999.90;;;;;;;7.05;57.68;94349.38;5004103;28;20191;-85
2022/04/18 10:47:55;;;;;;;1999.90;999.90;;;;;;;7.43;57.12;94400.13;5014365;28;20196;-85
2022/04/18 10:50:25;;;;;;;1999.90;999.90;;;;;;;7.01;57.38;94356.81;5001416;28;20213;-85
2022/04/18 10:53:09;;;;;;;1999.90;999.90;;;;;;;7.24;57.19;94410.56;5012028;28;20188;-85
2022/04/18 10:55:36;;;;;;;1999.90;999.90;;;;;;;6.83;57.39;94362.63;5018429;28;20176;-86
2022/04/18 10:58:13;;;;;;;1999.90;999.90;;;;;;;7.05;58.13;94399.09;5011709;28;20274;-86
2022/04/18 11:00:46;;;;;;;1999.90;999.90;;;;;;;7.07;58.83;94400.50;5018067;28;20176;-85
2022/04/18 11:03:12;;;;;;;1999.90;999.90;;;;;;;6.74;56.79;94347.34;5021278;28;20203;-85
2022/04/18 11:05:38;;;;;;;1999.90;999.90;;;;;;;6.80;57.50;94357.81;5015226;28;20238;-85
2022/04/18 11:08:22;;;;;;;1999.90;999.90;;;;;;;7.25;56.22;94405.16;5012705;28;20651;-85
2022/04/18 11:10:48;;;;;;;1999.90;999.90;;;;;;;7.02;55.05;94368.88;5016871;28;20277;-85
2022/04/18 11:13:14;;;;;;;1999.90;999.90;;;;;;;6.76;53.72;94364.44;5001222;28;20199;-86
2022/04/18 11:15:40;;;;;;;1999.90;999.90;;;;;;;6.52;54.44;94330.22;4996368;28;20267;-86
2022/04/18 11:18:09;;;;;;;1999.90;999.90;;;;;;;6.88;55.63;94403.91;5013549;28;20666;-85
2022/04/18 11:20:36;;;;;;;1999.90;999.90;;;;;;;6.43;55.99;94301.63;5014068;28;20181;-85
2022/04/18 11:23:30;;;;;;;1999.90;999.90;;;;;;;6.89;54.59;94389.81;5001899;28;20208;-85
2022/04/18 11:26:04;;;;;;;1999.90;999.90;;;;;;;6.86;52.83;94371.91;5002617;28;20195;-86
2022/04/18 11:28:33;;;;;;;1999.90;999.90;;;;;;;7.07;51.92;94397.09;5021620;28;20183;-86
2022/04/18 11:30:58;;;;;;;1999.90;999.90;;;;;;;6.87;52.06;94349.97;4995035;28;20177;-86
2022/04/18 11:33:24;;;;;;;1999.90;999.90;;;;;;;7.26;51.85;94396.28;5012924;28;20172;-85
2022/04/18 11:35:50;;;;;;;1999.90;999.90;;;;;;;7.06;50.64;94357.03;5017916;28;20287;-85
2022/04/18 11:38:15;;;;;;;1999.90;999.90;;;;;;;7.27;52.46;94394.44;5005020;28;20169;-85
2022/04/18 11:40:41;;;;;;;1999.90;999.90;;;;;;;7.29;53.77;94387.22;5004840;28;20580;-85
2022/04/18 11:43:16;;;;;;;1999.90;999.90;;;;;;;7.35;53.18;94366.25;5014548;28;20246;-85
2022/04/18 11:45:42;;;;;;;1999.90;999.90;;;;;;;7.37;52.09;94342.50;5015755;28;20202;-85